< Cyclone 199609 1996 Season Cyclone 199611 >
Cyclone 199610 (JACOB)
General InformationTrack Information on Google MapsDetailed Wind InformationList of All Images || ResourceGoogle EarthGE AnimationAtom FeedGeoJSON
Detalied Best Track (Time Zone = UTC)
Year Month Day Hour Lat. Long. Pressure (hPa) Wind (kt) Class Image Chart
1996 1 27 18 -15.0 138.3 997 35 3 Image --
1996 1 28 00 -15.3 137.7 992 40 3 Image --
1996 1 28 06 -15.5 137.0 986 45 3 Image --
1996 1 28 12 -15.6 136.4 992 40 3 Image --
1996 1 28 18 -15.6 136.3 994 35 3 Image --
1996 1 29 00 -16.5 135.0 994.133 34.8667 0 Image --
1996 1 29 06 -16.6 133.9 994.267 34.7333 0 Image --
1996 1 29 12 -16.7 133.3 994.4 34.6 0 Image --
1996 1 29 18 -16.8 132.7 994.533 34.4667 0 Image --
1996 1 30 00 -16.9 131.8 994.667 34.3333 0 Image --
1996 1 30 06 -16.8 131.1 994.8 34.2 0 Image --
1996 1 30 12 -16.6 130.4 994.933 34.0667 0 Image --
1996 1 30 18 -16.3 130.1 995.067 33.9333 0 Image --
1996 1 31 00 -16.1 129.9 995.2 33.8 0 Image --
1996 1 31 06 -15.9 129.5 995.333 33.6667 0 Image --
1996 1 31 12 -15.6 129.1 995.467 33.5333 0 Image --
1996 1 31 18 -15.2 128.5 995.6 33.4 0 Image --
1996 2 1 00 -14.7 128.0 995.733 33.2667 0 Image --
1996 2 1 06 -14.3 127.4 995.867 33.1333 0 Image --
1996 2 1 13 -13.7 126.2 996 33 2 Image --
1996 2 1 16 -13.8 125.5 996 33 2 Image --
1996 2 1 19 -14.0 125.0 994 35 3 Image --
1996 2 1 22 -14.4 124.6 994 35 3 Image --
1996 2 2 01 -14.7 124.2 992 39 3 Image --
1996 2 2 04 -15.0 123.2 990 41 3 Image --
1996 2 2 07 -15.3 123.1 985 47 3 Image --
1996 2 2 10 -15.6 122.6 980 54 4 Image --
1996 2 2 13 -15.8 122.0 975 60 4 Image --
1996 2 2 16 -16.0 121.4 970 66 5 Image --
1996 2 2 19 -16.2 120.8 970 66 5 Image --
1996 2 2 22 -16.6 120.2 965 70 5 Image --
1996 2 3 01 -16.8 119.7 965 70 5 Image --
1996 2 3 04 -17.0 119.3 965 70 5 Image --
1996 2 3 07 -17.2 118.9 965 70 5 Image --
1996 2 3 10 -17.4 118.6 965 70 5 Image --
1996 2 3 13 -17.6 118.3 965 70 5 Image --
1996 2 3 16 -17.7 117.9 965 70 5 Image --
1996 2 3 19 -17.9 117.4 965 70 5 Image --
1996 2 3 22 -18.1 117.1 960 76 5 Image --
1996 2 4 01 -18.3 116.8 960 76 5 Image --
1996 2 4 04 -18.6 116.4 960 76 5 Image --
1996 2 4 07 -18.9 115.9 960 76 5 Image --
1996 2 4 10 -19.3 115.5 960 76 5 Image --
1996 2 4 13 -19.5 115.0 960 76 5 Image --
1996 2 4 16 -19.8 114.5 960 76 5 Image --
1996 2 4 19 -20.0 114.0 960 76 5 Image --
1996 2 4 22 -20.3 113.5 955 80 5 Image --
1996 2 5 01 -20.8 113.0 955 80 5 Image --
1996 2 5 04 -21.3 112.4 955 80 5 Image --
1996 2 5 07 -21.6 111.8 955 80 5 Image --
1996 2 5 10 -21.9 111.4 955 80 5 Image --
1996 2 5 13 -22.1 111.0 955 80 5 Image --
1996 2 5 16 -22.3 110.6 955 80 5 Image --
1996 2 5 19 -22.4 110.3 965 70 5 Image --
1996 2 5 22 -22.5 110.0 975 60 4 Image --
1996 2 6 01 -22.6 109.7 980 54 4 Image --
1996 2 6 04 -22.7 109.6 985 47 3 Image --
1996 2 6 07 -22.9 109.6 985 47 3 Image --
1996 2 6 10 -23.2 109.6 990 41 3 Image --
1996 2 6 13 -23.5 109.5 990 41 3 Image --
1996 2 6 16 -23.7 109.2 990 41 3 Image --
1996 2 6 19 -23.9 108.9 995 35 3 Image --
1996 2 6 22 -23.9 108.6 995 35 3 Image --
1996 2 7 01 -23.9 108.3 995 35 3 Image --
1996 2 7 04 -23.9 108.0 995 35 3 Image --
1996 2 7 07 -23.9 107.8 998 29 2 Image --
1996 2 7 10 -24.0 107.6 1000 27 2 Image --
1996 2 7 13 -24.1 107.4 1002 23 2 Image --
1996 2 7 16 -24.2 107.2 1004 21 2 Image --
1996 2 7 19 -24.3 107.0 1006 0 0 Image --
1996 2 7 22 -24.5 106.8 1006 0 0 Image --
1996 2 8 01 -24.7 106.6 1008 0 0 Image --
1996 2 8 04 -25.0 106.1 1008 0 0 Image --
1996 2 8 07 -25.4 105.7 1008 0 0 Image --
< Cyclone 199609 1996 Season Cyclone 199611 >

Help